createdAt,value
2023-01-05T00:00:45.599Z,29.28
2023-01-05T00:03:15.621Z,29.27
2023-01-05T00:05:48.057Z,29.23
2023-01-05T00:08:17.239Z,29.15
2023-01-05T00:11:03.737Z,29.19
2023-01-05T00:13:50.654Z,29.21
2023-01-05T00:16:37.370Z,29.23
2023-01-05T00:19:24.565Z,29.26
2023-01-05T00:22:11.475Z,29.28
2023-01-05T00:24:40.747Z,29.32
2023-01-05T00:27:11.370Z,29.34
2023-01-05T00:29:40.712Z,29.36
2023-01-05T00:32:09.955Z,29.37
2023-01-05T00:34:39.116Z,29.41
2023-01-05T00:37:08.438Z,29.42
2023-01-05T00:39:37.685Z,29.43
2023-01-05T00:42:06.973Z,29.43
2023-01-05T00:44:36.318Z,29.47
2023-01-05T00:47:05.613Z,29.47
2023-01-05T00:49:35.009Z,29.48
2023-01-05T00:52:04.395Z,29.50
2023-01-05T00:54:33.635Z,29.53
2023-01-05T00:57:02.950Z,29.50
2023-01-05T00:59:32.316Z,29.45
2023-01-05T01:02:01.640Z,29.44
2023-01-05T01:04:32.149Z,29.42
2023-01-05T01:07:03.879Z,29.42
2023-01-05T01:09:33.125Z,29.39
2023-01-05T01:12:05.255Z,29.38
2023-01-05T01:14:34.740Z,29.34
2023-01-05T01:17:05.038Z,29.33
2023-01-05T01:19:34.520Z,29.32
2023-01-05T01:22:03.796Z,29.29
2023-01-05T01:24:33.085Z,29.30
2023-01-05T01:27:02.369Z,29.31
2023-01-05T01:29:31.691Z,29.28
2023-01-05T01:32:01.098Z,29.27
2023-01-05T01:34:30.282Z,29.24
2023-01-05T01:37:00.236Z,29.24
2023-01-05T01:39:29.374Z,29.20
2023-01-05T01:41:58.580Z,29.19
2023-01-05T01:44:44.315Z,29.18
2023-01-05T01:47:17.714Z,29.17
2023-01-05T01:49:46.991Z,29.18
2023-01-05T01:52:16.705Z,29.17
2023-01-05T01:54:46.449Z,29.15
2023-01-05T01:57:16.547Z,29.12
2023-01-05T01:59:46.565Z,29.11
2023-01-05T02:02:16.632Z,29.11
2023-01-05T02:04:46.522Z,29.10
2023-01-05T02:07:17.202Z,29.06
2023-01-05T02:09:46.416Z,29.04
2023-01-05T02:12:17.924Z,29.05
2023-01-05T02:15:06.325Z,29.03
2023-01-05T02:17:39.980Z,29.03
2023-01-05T02:20:26.831Z,29.01
2023-01-05T02:23:12.753Z,29.02
2023-01-05T02:25:59.969Z,29.00
2023-01-05T02:28:30.753Z,29.01
2023-01-05T02:31:18.317Z,29.02
2023-01-05T02:34:06.000Z,28.98
2023-01-05T02:36:54.440Z,28.98
2023-01-05T02:39:25.136Z,28.93
2023-01-05T02:42:07.914Z,28.92
2023-01-05T02:44:37.186Z,28.90
2023-01-05T02:47:08.225Z,28.93
2023-01-05T02:49:39.159Z,28.92
2023-01-05T02:52:08.472Z,28.91
2023-01-05T02:54:39.227Z,28.90
2023-01-05T02:57:15.521Z,28.89
2023-01-05T02:59:45.730Z,28.87
2023-01-05T03:02:20.014Z,28.84
2023-01-05T03:04:49.870Z,28.81
2023-01-05T03:07:20.019Z,28.80
2023-01-05T03:09:49.259Z,28.80
2023-01-05T03:12:40.854Z,28.80
2023-01-05T03:15:23.210Z,28.80
2023-01-05T03:17:54.120Z,28.71
2023-01-05T03:20:24.245Z,28.73
2023-01-05T03:23:11.498Z,28.76
2023-01-05T03:25:58.364Z,28.80
2023-01-05T03:28:49.508Z,28.84
2023-01-05T03:31:49.583Z,28.90
2023-01-05T03:34:46.613Z,28.93
2023-01-05T03:37:17.504Z,28.97
2023-01-05T03:39:46.987Z,29.01
2023-01-05T03:42:16.805Z,29.03
2023-01-05T03:44:46.672Z,29.08
2023-01-05T03:47:16.723Z,29.10
2023-01-05T03:49:46.057Z,29.12
2023-01-05T03:52:15.895Z,29.16
2023-01-05T03:54:45.903Z,29.17
2023-01-05T03:57:15.950Z,29.18
2023-01-05T03:59:45.856Z,29.18
2023-01-05T04:02:15.945Z,29.15
2023-01-05T04:04:45.893Z,29.14
2023-01-05T04:07:18.683Z,29.13
2023-01-05T04:09:47.069Z,29.10
2023-01-05T04:12:17.031Z,29.10
2023-01-05T04:14:46.777Z,29.08
2023-01-05T04:17:16.820Z,29.08
2023-01-05T04:19:46.909Z,29.05
2023-01-05T04:22:18.962Z,29.06
2023-01-05T04:24:47.499Z,29.05
2023-01-05T04:27:16.889Z,29.03
2023-01-05T04:29:46.806Z,29.00
2023-01-05T04:32:16.695Z,28.96
2023-01-05T04:34:46.968Z,28.97
2023-01-05T04:37:16.825Z,28.97
2023-01-05T04:39:47.095Z,28.92
2023-01-05T04:42:16.889Z,28.92
2023-01-05T04:44:46.832Z,28.90
2023-01-05T04:47:16.845Z,28.84
2023-01-05T04:49:46.938Z,28.86
2023-01-05T04:52:16.184Z,28.78
2023-01-05T04:54:46.011Z,28.84
2023-01-05T04:57:15.313Z,28.87
2023-01-05T04:59:44.907Z,28.89
2023-01-05T05:02:15.021Z,28.90
2023-01-05T05:04:45.189Z,28.91
2023-01-05T05:07:15.034Z,28.92
2023-01-05T05:09:45.014Z,28.95
2023-01-05T05:12:15.380Z,28.96
2023-01-05T05:14:49.195Z,28.98
2023-01-05T05:17:15.991Z,28.97
2023-01-05T05:19:47.123Z,29.00
2023-01-05T05:22:16.963Z,29.01
2023-01-05T05:24:46.329Z,29.03
2023-01-05T05:27:15.991Z,29.03
2023-01-05T05:29:45.967Z,29.06
2023-01-05T05:32:15.955Z,29.06
2023-01-05T05:34:46.092Z,29.07
2023-01-05T05:37:16.002Z,29.09
2023-01-05T05:39:46.092Z,29.10
2023-01-05T05:42:16.045Z,29.09
2023-01-05T05:44:46.305Z,29.09
2023-01-05T05:47:16.504Z,29.09
2023-01-05T05:49:46.481Z,29.09
2023-01-05T05:52:16.145Z,29.11
2023-01-05T05:54:46.126Z,29.10
2023-01-05T05:57:16.115Z,29.10
2023-01-05T05:59:46.046Z,29.03
2023-01-05T06:02:20.708Z,28.98
2023-01-05T06:04:48.318Z,28.98
2023-01-05T06:07:17.556Z,28.95
2023-01-05T06:09:46.851Z,28.93
2023-01-05T06:12:17.172Z,28.90
2023-01-05T06:14:46.952Z,28.88
2023-01-05T06:17:16.878Z,28.85
2023-01-05T06:19:47.190Z,28.85
2023-01-05T06:22:17.124Z,28.82
2023-01-05T06:24:47.118Z,28.81
2023-01-05T06:27:17.145Z,28.79
2023-01-05T06:29:46.325Z,28.76
2023-01-05T06:32:16.239Z,28.75
2023-01-05T06:34:46.307Z,28.71
2023-01-05T06:37:16.306Z,28.69
2023-01-05T06:39:46.294Z,28.65
2023-01-05T06:42:20.231Z,28.64
2023-01-05T06:44:46.951Z,28.59
2023-01-05T06:47:16.208Z,28.58
2023-01-05T06:49:46.341Z,28.54
2023-01-05T06:52:17.011Z,28.50
2023-01-05T06:54:47.222Z,28.47
2023-01-05T06:57:17.295Z,28.42
2023-01-05T06:59:49.802Z,28.41
2023-01-05T07:02:19.154Z,28.39
2023-01-05T07:04:48.605Z,28.39
2023-01-05T07:07:17.895Z,28.44
2023-01-05T07:09:48.637Z,28.50
2023-01-05T07:12:19.773Z,28.51
2023-01-05T07:14:52.897Z,28.53
2023-01-05T07:17:19.758Z,28.54
2023-01-05T07:19:49.029Z,28.55
2023-01-05T07:22:18.339Z,28.56
2023-01-05T07:24:47.640Z,28.57
2023-01-05T07:27:17.489Z,28.57
2023-01-05T07:29:49.758Z,28.58
2023-01-05T07:32:19.282Z,28.59
2023-01-05T07:34:55.501Z,28.60
2023-01-05T07:37:19.168Z,28.61
2023-01-05T07:39:48.269Z,28.62
2023-01-05T07:42:17.469Z,28.63
2023-01-05T07:44:47.399Z,28.65
2023-01-05T07:47:17.473Z,28.63
2023-01-05T07:49:47.167Z,28.65
2023-01-05T07:52:16.471Z,28.64
2023-01-05T07:54:46.495Z,28.64
2023-01-05T07:57:16.622Z,28.66
2023-01-05T07:59:46.549Z,28.64
2023-01-05T08:02:17.028Z,28.57
2023-01-05T08:04:46.802Z,28.55
2023-01-05T08:07:16.788Z,28.53
2023-01-05T08:10:04.403Z,28.51
2023-01-05T08:12:33.719Z,28.50
2023-01-05T08:15:02.990Z,28.49
2023-01-05T08:17:32.241Z,28.47
2023-01-05T08:20:04.419Z,28.44
2023-01-05T08:22:33.624Z,28.41
2023-01-05T08:25:02.822Z,28.37
2023-01-05T08:27:32.098Z,28.36
2023-01-05T08:30:01.319Z,28.31
2023-01-05T08:32:30.594Z,28.28
2023-01-05T08:34:59.884Z,28.26
2023-01-05T08:37:29.195Z,28.22
2023-01-05T08:39:58.433Z,28.18
2023-01-05T08:42:27.660Z,28.15
2023-01-05T08:44:59.689Z,28.12
2023-01-05T08:47:28.987Z,28.13
2023-01-05T08:49:58.339Z,28.10
2023-01-05T08:52:27.787Z,28.09
2023-01-05T08:54:57.002Z,28.16
2023-01-05T08:57:26.348Z,28.20
2023-01-05T08:59:55.635Z,28.21
2023-01-05T09:02:26.007Z,28.21
2023-01-05T09:04:55.560Z,28.23
2023-01-05T09:07:25.352Z,28.22
2023-01-05T09:09:55.191Z,28.23
2023-01-05T09:12:29.173Z,28.24
2023-01-05T09:14:55.819Z,28.25
2023-01-05T09:17:25.226Z,28.25
2023-01-05T09:19:54.524Z,28.25
2023-01-05T09:22:23.756Z,28.27
2023-01-05T09:24:54.386Z,28.25
2023-01-05T09:27:23.736Z,28.27
2023-01-05T09:29:52.946Z,28.26
2023-01-05T09:32:22.210Z,28.27
2023-01-05T09:34:54.371Z,28.29
2023-01-05T09:37:29.333Z,28.27
2023-01-05T09:40:00.535Z,28.25
2023-01-05T09:42:30.598Z,28.24
2023-01-05T09:45:01.262Z,28.25
2023-01-05T09:47:40.164Z,28.25
2023-01-05T09:50:09.921Z,28.24
2023-01-05T09:52:39.185Z,28.22
2023-01-05T09:55:18.324Z,28.24
2023-01-05T09:57:49.399Z,28.21
2023-01-05T10:00:18.855Z,28.18
2023-01-05T10:02:55.358Z,28.19
2023-01-05T10:05:25.030Z,28.16
2023-01-05T10:08:04.701Z,28.17
2023-01-05T10:10:50.872Z,28.14
2023-01-05T10:13:27.945Z,28.16
2023-01-05T10:15:57.279Z,28.13
2023-01-05T10:18:27.270Z,28.13
2023-01-05T10:21:03.814Z,28.11
2023-01-05T10:23:37.568Z,28.10
2023-01-05T10:26:17.415Z,28.09
2023-01-05T10:28:54.177Z,28.08
2023-01-05T10:31:26.933Z,28.07
2023-01-05T10:34:01.655Z,28.05
2023-01-05T10:37:06.526Z,28.03
2023-01-05T10:39:19.716Z,28.04
2023-01-05T10:41:53.081Z,27.99
2023-01-05T10:44:32.560Z,27.99
2023-01-05T10:47:01.915Z,27.96
2023-01-05T10:49:31.902Z,27.96
2023-01-05T10:52:04.321Z,27.93
2023-01-05T10:54:40.944Z,27.89
2023-01-05T10:57:34.087Z,27.84
2023-01-05T11:00:02.656Z,27.78
2023-01-05T11:02:32.509Z,27.75
2023-01-05T11:05:03.265Z,27.67
2023-01-05T11:07:32.640Z,27.69
2023-01-05T11:10:01.911Z,27.68
2023-01-05T11:12:31.149Z,27.65
2023-01-05T11:15:00.503Z,27.62
2023-01-05T11:17:29.973Z,27.53
2023-01-05T11:19:59.270Z,27.52
2023-01-05T11:22:32.318Z,27.47
2023-01-05T11:25:19.351Z,27.44
2023-01-05T11:27:54.214Z,27.41
2023-01-05T11:30:21.364Z,27.39
2023-01-05T11:32:50.661Z,27.37
2023-01-05T11:35:21.297Z,27.34
2023-01-05T11:37:50.599Z,27.29
2023-01-05T11:40:20.278Z,27.27
2023-01-05T11:42:49.524Z,27.26
2023-01-05T11:45:22.348Z,27.23
2023-01-05T11:47:52.198Z,27.25
2023-01-05T11:50:25.991Z,27.23
2023-01-05T11:53:00.020Z,27.22
2023-01-05T11:55:32.730Z,27.17
2023-01-05T11:58:03.407Z,27.17
2023-01-05T12:00:50.719Z,27.13
2023-01-05T12:03:36.403Z,27.10
2023-01-05T12:06:23.664Z,27.15
2023-01-05T12:09:10.833Z,27.11
2023-01-05T12:11:41.396Z,27.09
2023-01-05T12:14:21.200Z,27.05
2023-01-05T12:16:57.500Z,27.03
2023-01-05T12:19:45.559Z,27.01
2023-01-05T12:22:17.067Z,26.99
2023-01-05T12:24:56.954Z,27.04
2023-01-05T12:27:30.324Z,27.03
2023-01-05T12:35:50.067Z,26.91
2023-01-05T12:38:20.820Z,26.92
2023-01-05T12:40:54.541Z,26.93
2023-01-05T12:43:25.222Z,26.98
2023-01-05T12:45:55.785Z,26.87
2023-01-05T12:48:29.233Z,26.91
2023-01-05T12:51:05.801Z,27.00
2023-01-05T12:53:39.440Z,27.06
2023-01-05T12:56:12.838Z,27.12
2023-01-05T12:58:42.724Z,27.14
2023-01-05T13:01:13.422Z,27.17
2023-01-05T13:03:43.795Z,27.18
2023-01-05T13:06:13.989Z,27.18
2023-01-05T13:08:44.780Z,27.19
2023-01-05T13:11:30.925Z,27.23
2023-01-05T13:14:06.927Z,27.23
2023-01-05T13:16:40.076Z,27.26
2023-01-05T13:19:11.256Z,27.25
2023-01-05T13:21:41.891Z,27.29
2023-01-05T13:24:19.930Z,27.31
2023-01-05T13:26:49.211Z,27.33
2023-01-05T13:29:19.858Z,27.30
2023-01-05T13:31:53.617Z,27.32
2023-01-05T13:34:30.733Z,27.31
2023-01-05T13:37:10.325Z,27.30
2023-01-05T13:39:44.056Z,27.31
2023-01-05T13:42:25.330Z,27.31
2023-01-05T13:45:01.846Z,27.36
2023-01-05T13:47:37.494Z,27.38
2023-01-05T13:50:16.291Z,27.36
2023-01-05T13:52:50.278Z,27.34
2023-01-05T13:55:25.767Z,27.31
2023-01-05T13:57:50.698Z,27.31
2023-01-05T14:00:24.236Z,27.31
2023-01-05T14:03:00.671Z,27.32
2023-01-05T14:05:36.460Z,27.35
2023-01-05T14:08:06.057Z,27.39
2023-01-05T14:10:35.461Z,27.34
2023-01-05T14:13:06.512Z,27.33
2023-01-05T14:15:38.366Z,27.31
2023-01-05T14:18:08.267Z,27.29
2023-01-05T14:20:38.568Z,27.26
2023-01-05T14:23:27.510Z,27.26
2023-01-05T14:26:01.620Z,27.25
2023-01-05T14:28:35.336Z,27.23
2023-01-05T14:31:22.132Z,27.17
2023-01-05T14:34:01.591Z,27.16
2023-01-05T14:36:31.679Z,27.11
2023-01-05T14:39:00.850Z,27.09
2023-01-05T14:41:30.116Z,27.09
2023-01-05T14:44:02.581Z,27.07
2023-01-05T14:46:33.157Z,27.03
2023-01-05T14:49:03.422Z,26.99
2023-01-05T14:51:33.232Z,26.99
2023-01-05T14:54:04.450Z,26.97
2023-01-05T14:56:37.579Z,26.95
2023-01-05T14:59:08.186Z,26.93
2023-01-05T15:01:45.053Z,26.92
2023-01-05T15:04:22.367Z,26.88
2023-01-05T15:06:53.113Z,26.88
2023-01-05T15:09:26.507Z,26.81
2023-01-05T15:11:57.556Z,26.80
2023-01-05T15:14:44.869Z,26.74
2023-01-05T15:17:15.484Z,26.76
2023-01-05T15:19:51.968Z,26.77
2023-01-05T15:22:37.240Z,26.76
2023-01-05T15:24:57.434Z,26.73
2023-01-05T15:27:33.878Z,26.69
2023-01-05T15:30:07.224Z,26.66
2023-01-05T15:32:36.604Z,26.61
2023-01-05T15:35:07.132Z,26.60
2023-01-05T15:37:37.056Z,26.63
2023-01-05T15:40:08.479Z,26.60
2023-01-05T15:42:42.258Z,26.58
2023-01-05T15:45:19.070Z,26.54
2023-01-05T15:47:52.166Z,26.53
2023-01-05T15:50:22.020Z,26.48
2023-01-05T15:53:03.847Z,26.43
2023-01-05T15:55:33.034Z,26.46
2023-01-05T15:58:04.210Z,26.48
2023-01-05T16:00:34.763Z,26.46
2023-01-05T16:03:04.152Z,26.44
2023-01-05T16:05:39.809Z,26.42
2023-01-05T16:08:10.624Z,26.41
2023-01-05T16:10:40.471Z,26.40
2023-01-05T16:13:10.989Z,26.38
2023-01-05T16:15:42.211Z,26.41
2023-01-05T16:18:12.751Z,26.43
2023-01-05T16:20:42.915Z,26.41
2023-01-05T16:23:16.600Z,26.42
2023-01-05T16:25:52.188Z,26.42
2023-01-05T16:28:22.500Z,26.42
2023-01-05T16:30:51.824Z,26.42
2023-01-05T16:33:28.188Z,26.38
2023-01-05T16:36:10.803Z,26.40
2023-01-05T16:38:40.186Z,26.43
2023-01-05T16:41:10.394Z,26.44
2023-01-05T16:43:40.907Z,26.42
2023-01-05T16:46:21.107Z,26.43
2023-01-05T16:48:53.640Z,26.43
2023-01-05T16:51:23.030Z,26.44
2023-01-05T16:53:56.155Z,26.41
2023-01-05T16:56:35.825Z,26.43
2023-01-05T16:59:06.425Z,26.45
2023-01-05T17:01:36.747Z,26.44
2023-01-05T17:04:07.322Z,26.48
2023-01-05T17:06:39.600Z,26.46
2023-01-05T17:09:10.315Z,26.46
2023-01-05T17:11:41.073Z,26.48
2023-01-05T17:14:10.991Z,26.49
2023-01-05T17:16:43.298Z,26.49
2023-01-05T17:19:16.620Z,26.52
2023-01-05T17:21:46.924Z,26.48
2023-01-05T17:24:16.863Z,26.54
2023-01-05T17:26:46.793Z,26.51
2023-01-05T17:29:18.137Z,26.54
2023-01-05T17:31:47.777Z,26.53
2023-01-05T17:34:17.587Z,26.54
2023-01-05T17:36:47.679Z,26.49
2023-01-05T17:39:18.077Z,26.53
2023-01-05T17:41:47.883Z,26.57
2023-01-05T17:44:17.997Z,26.61
2023-01-05T17:46:48.012Z,26.56
2023-01-05T17:49:21.240Z,26.58
2023-01-05T17:51:50.502Z,26.58
2023-01-05T17:54:19.889Z,26.57
2023-01-05T17:56:49.186Z,26.60
2023-01-05T17:59:18.677Z,26.60
2023-01-05T18:01:48.727Z,26.63
2023-01-05T18:04:18.666Z,26.60
2023-01-05T18:09:18.763Z,26.64
2023-01-05T18:11:50.138Z,26.66
2023-01-05T18:14:19.424Z,26.65
2023-01-05T18:16:49.650Z,26.69
2023-01-05T18:19:18.906Z,26.69
2023-01-05T18:21:48.729Z,26.70
2023-01-05T18:24:20.134Z,26.70
2023-01-05T18:26:54.001Z,26.71
2023-01-05T18:29:21.280Z,26.74
2023-01-05T18:31:50.507Z,26.72
2023-01-05T18:34:19.788Z,26.74
2023-01-05T18:36:55.643Z,26.77
2023-01-05T18:39:20.257Z,26.76
2023-01-05T18:41:49.546Z,26.73
2023-01-05T18:44:18.845Z,26.74
2023-01-05T18:46:48.812Z,26.77
2023-01-05T18:49:18.733Z,26.75
2023-01-05T18:51:48.652Z,26.77
2023-01-05T18:54:18.822Z,26.72
2023-01-05T18:56:48.085Z,26.76
2023-01-05T18:59:17.911Z,26.76
2023-01-05T19:01:48.140Z,26.76
2023-01-05T19:04:17.963Z,26.75
2023-01-05T19:06:47.922Z,26.76
2023-01-05T19:09:18.144Z,26.81
2023-01-05T19:11:48.404Z,26.79
2023-01-05T19:14:18.949Z,26.79
2023-01-05T19:16:50.103Z,26.80
2023-01-05T19:19:21.015Z,26.79
2023-01-05T19:21:50.260Z,26.83
2023-01-05T19:24:20.771Z,26.83
2023-01-05T19:26:50.352Z,26.81
2023-01-05T19:29:20.155Z,26.88
2023-01-05T19:31:50.215Z,26.89
2023-01-05T19:34:20.296Z,26.88
2023-01-05T19:36:49.725Z,26.91
2023-01-05T19:39:20.401Z,26.89
2023-01-05T19:41:49.763Z,26.92
2023-01-05T19:44:22.187Z,26.95
2023-01-05T19:46:52.884Z,26.92
2023-01-05T19:49:23.722Z,26.94
2023-01-05T19:51:53.338Z,26.97
2023-01-05T19:54:23.750Z,26.96
2023-01-05T19:56:52.958Z,26.99
2023-01-05T19:59:24.300Z,27.02
2023-01-05T20:01:54.397Z,27.04
2023-01-05T20:04:23.624Z,27.02
2023-01-05T20:06:52.762Z,27.03
2023-01-05T20:09:22.016Z,27.06
2023-01-05T20:11:54.773Z,27.11
2023-01-05T20:14:23.086Z,27.12
2023-01-05T20:16:53.711Z,27.12
2023-01-05T20:19:23.077Z,27.16
2023-01-05T20:21:52.330Z,27.12
2023-01-05T20:24:25.600Z,27.15
2023-01-05T20:26:55.478Z,27.18
2023-01-05T20:29:24.705Z,27.16
2023-01-05T20:32:04.122Z,27.16
2023-01-05T20:34:35.083Z,27.20
2023-01-05T20:37:04.937Z,27.24
2023-01-05T20:39:34.204Z,27.23
2023-01-05T20:42:05.015Z,27.21
2023-01-05T20:44:35.868Z,27.25
2023-01-05T20:47:05.189Z,27.27
2023-01-05T20:49:34.589Z,27.24
2023-01-05T20:52:03.786Z,27.33
2023-01-05T20:54:34.464Z,27.35
2023-01-05T20:57:03.682Z,27.34
2023-01-05T20:59:33.763Z,27.39
2023-01-05T21:02:05.753Z,27.36
2023-01-05T21:04:33.667Z,27.37
2023-01-05T21:07:02.887Z,27.42
2023-01-05T21:09:32.168Z,27.44
2023-01-05T21:12:03.090Z,27.45
2023-01-05T21:14:32.388Z,27.44
2023-01-05T21:17:01.802Z,27.49
2023-01-05T21:19:31.101Z,27.49
2023-01-05T21:22:00.307Z,27.52
2023-01-05T21:24:29.685Z,27.53
2023-01-05T21:26:59.074Z,27.52
2023-01-05T21:29:28.253Z,27.58
2023-01-05T21:31:58.048Z,27.59
2023-01-05T21:34:27.346Z,27.57
2023-01-05T21:36:56.591Z,27.56
2023-01-05T21:39:26.302Z,27.55
2023-01-05T21:42:13.087Z,27.60
2023-01-05T21:44:42.372Z,27.61
2023-01-05T21:47:11.765Z,27.66
2023-01-05T21:49:40.962Z,27.65
2023-01-05T21:52:30.489Z,27.71
2023-01-05T21:55:17.447Z,27.66
2023-01-05T21:57:47.375Z,27.66
2023-01-05T22:00:17.683Z,27.67
2023-01-05T22:02:47.453Z,27.69
2023-01-05T22:05:19.637Z,27.68
2023-01-05T22:07:49.232Z,27.67
2023-01-05T22:10:18.794Z,27.66
2023-01-05T22:12:48.368Z,27.69
2023-01-05T22:15:21.963Z,27.69
2023-01-05T22:17:53.688Z,27.55
2023-01-05T22:20:22.882Z,27.55
2023-01-05T22:22:52.049Z,27.56
2023-01-05T22:25:21.336Z,27.59
2023-01-05T22:27:50.478Z,27.61
2023-01-05T22:30:20.249Z,27.67
2023-01-05T22:32:50.641Z,27.70
2023-01-05T22:35:22.948Z,27.76
2023-01-05T22:37:53.605Z,27.81
2023-01-05T22:40:23.175Z,27.85
2023-01-05T22:42:52.407Z,27.90
2023-01-05T22:45:21.603Z,27.96
2023-01-05T22:47:50.965Z,27.95
2023-01-05T22:50:20.327Z,28.01
2023-01-05T22:52:50.795Z,28.05
2023-01-05T22:55:22.940Z,28.06
2023-01-05T22:57:51.690Z,28.10
2023-01-05T23:00:21.061Z,28.10
2023-01-05T23:02:50.516Z,28.12
2023-01-05T23:05:19.943Z,28.11
2023-01-05T23:07:49.753Z,28.14
2023-01-05T23:10:19.299Z,28.12
2023-01-05T23:12:49.638Z,28.16
2023-01-05T23:15:19.616Z,28.13
2023-01-05T23:17:49.699Z,28.13
2023-01-05T23:20:19.782Z,28.13
2023-01-05T23:22:49.690Z,28.12
2023-01-05T23:25:20.028Z,28.08
2023-01-05T23:27:49.484Z,28.04
2023-01-05T23:30:19.623Z,28.00
2023-01-05T23:32:49.771Z,27.98
2023-01-05T23:35:19.093Z,27.97
2023-01-05T23:37:48.605Z,27.93
2023-01-05T23:40:19.317Z,27.92
2023-01-05T23:42:50.007Z,27.89
2023-01-05T23:45:20.392Z,27.89
2023-01-05T23:47:50.382Z,27.85
2023-01-05T23:50:21.498Z,27.84
2023-01-05T23:52:50.839Z,27.82
2023-01-05T23:55:20.564Z,27.81
2023-01-05T23:57:50.369Z,27.79
